Los Altos, California
Current Conditions -  °F | °C
As of 8:56 AM on Friday 31 Oct 2014 (Local Time) from KNUQ Reporting Station
Light Rain Light Rain  
Wind Chill: 62°   Ceiling: 11000
Heat Index: 62°   Visibility: 10mi
Dew Point: 59°   Wind: 8mph
Humidity: 90%   Direction: 130°SE
Pressure: 29.88"   Gusts: NA
Location:  37.38°N, 122.11°W
Report Text: KNUQ 311556Z 13007KT 10SM -RA FEW035 OVC110 17/15 A2988 RMK AO2 RAB14 SLP120 P0000 T01670150
Loading
Personal Weather Stations






























Interactive Weather Map
Tropical Storm Tracking
New forecast layout! Learn more

10-Day Weather Forecast

Advertisements
Track Severe Weather on mobile